createdAt,value
2022-09-13T00:02:27.204Z,98711.77
2022-09-13T00:05:44.168Z,98708.71
2022-09-13T00:09:01.409Z,98706.62
2022-09-13T00:12:17.607Z,98703.16
2022-09-13T00:15:34.399Z,98702.14
2022-09-13T00:18:50.736Z,98710.92
2022-09-13T00:22:07.214Z,98701.75
2022-09-13T00:25:23.350Z,98699.53
2022-09-13T00:28:39.395Z,98693.02
2022-09-13T00:31:55.358Z,98695.30
2022-09-13T00:35:13.319Z,98695.30
2022-09-13T00:38:29.338Z,98695.74
2022-09-13T00:41:45.679Z,98685.48
2022-09-13T00:45:06.902Z,98687.90
2022-09-13T00:48:27.857Z,98677.47
2022-09-13T00:51:44.631Z,98679.73
2022-09-13T00:55:04.917Z,98678.52
2022-09-13T00:58:26.836Z,98678.34
2022-09-13T01:01:47.953Z,98678.34
2022-09-13T01:05:04.854Z,98681.61
2022-09-13T01:08:23.724Z,98673.20
2022-09-13T01:11:47.988Z,98668.93
2022-09-13T01:15:08.164Z,98667.28
2022-09-13T01:18:24.873Z,98665.23
2022-09-13T01:22:23.030Z,98658.09
2022-09-13T01:26:27.992Z,98674.05
2022-09-13T01:30:21.276Z,98670.88
2022-09-13T01:33:53.986Z,98665.56
2022-09-13T01:37:38.105Z,98668.86
2022-09-13T01:41:04.782Z,98670.70
2022-09-13T01:44:28.955Z,98676.39
2022-09-13T01:47:50.733Z,98675.78
2022-09-13T01:51:12.103Z,98674.70
2022-09-13T01:54:34.237Z,98676.55
2022-09-13T01:57:54.476Z,98668.13
2022-09-13T02:01:18.520Z,98669.58
2022-09-13T02:04:41.076Z,98663.83
2022-09-13T02:08:03.893Z,98660.16
2022-09-13T02:11:23.203Z,98659.96
2022-09-13T02:14:39.739Z,98660.60
2022-09-13T02:18:00.473Z,98658.75
2022-09-13T02:21:20.568Z,98647.32
2022-09-13T02:24:40.348Z,98651.23
2022-09-13T02:28:02.497Z,98643.63
2022-09-13T02:31:20.211Z,98639.52
2022-09-13T02:34:40.356Z,98637.50
2022-09-13T02:38:02.869Z,98634.04
2022-09-13T02:41:23.658Z,98639.35
2022-09-13T02:44:43.484Z,98640.36
2022-09-13T02:48:04.325Z,98641.33
2022-09-13T02:51:26.095Z,98643.53
2022-09-13T02:54:46.209Z,98637.98
2022-09-13T02:58:08.395Z,98636.09
2022-09-13T03:01:25.939Z,98636.01
2022-09-13T03:04:43.187Z,98627.23
2022-09-13T03:08:00.433Z,98620.64
2022-09-13T03:11:23.701Z,98619.83
2022-09-13T03:14:50.743Z,98616.17
2022-09-13T03:18:13.095Z,98610.22
2022-09-13T03:21:43.370Z,98607.52
2022-09-13T03:25:06.581Z,98611.63
2022-09-13T03:28:30.246Z,98606.56
2022-09-13T03:31:51.529Z,98599.41
2022-09-13T03:35:15.169Z,98601.64
2022-09-13T03:38:36.440Z,98593.41
2022-09-13T03:41:57.989Z,98592.71
2022-09-13T03:45:17.338Z,98605.38
2022-09-13T03:48:31.965Z,98597.33
2022-09-13T03:51:49.060Z,98604.03
2022-09-13T03:55:05.756Z,98598.02
2022-09-13T03:58:27.057Z,98600.67
2022-09-13T04:01:44.677Z,98602.07
2022-09-13T04:05:02.487Z,98600.78
2022-09-13T04:08:18.395Z,98606.28
2022-09-13T04:11:35.560Z,98604.19
2022-09-13T04:14:52.917Z,98601.47
2022-09-13T04:18:09.825Z,98602.22
2022-09-13T04:21:27.401Z,98597.84
2022-09-13T04:24:44.834Z,98593.09
2022-09-13T04:28:05.788Z,98595.09
2022-09-13T04:31:21.793Z,98590.83
2022-09-13T04:34:37.960Z,98584.33
2022-09-13T04:37:54.101Z,98580.48
2022-09-13T04:41:10.310Z,98581.09
2022-09-13T04:44:27.971Z,98585.59
2022-09-13T04:47:43.899Z,98576.83
2022-09-13T04:50:59.957Z,98575.73
2022-09-13T04:54:17.474Z,98582.94
2022-09-13T04:57:33.670Z,98584.59
2022-09-13T05:00:50.542Z,98583.75
2022-09-13T05:04:06.718Z,98587.23
2022-09-13T05:07:23.290Z,98586.23
2022-09-13T05:10:39.252Z,98583.65
2022-09-13T05:13:59.931Z,98577.41
2022-09-13T05:17:16.328Z,98579.95
2022-09-13T05:20:32.449Z,98573.89
2022-09-13T05:23:48.528Z,98575.84
2022-09-13T05:27:04.494Z,98584.30
2022-09-13T05:30:23.265Z,98591.95
2022-09-13T05:33:42.822Z,98588.61
2022-09-13T05:36:58.839Z,98587.45
2022-09-13T05:40:19.163Z,98589.98
2022-09-13T05:43:38.741Z,98589.41
2022-09-13T05:46:56.477Z,98594.97
2022-09-13T05:50:32.915Z,98594.80
2022-09-13T05:53:34.067Z,98605.93
2022-09-13T05:56:52.113Z,98603.75
2022-09-13T06:00:08.543Z,98600.91
2022-09-13T06:03:29.121Z,98606.32
2022-09-13T06:06:45.626Z,98604.09
2022-09-13T06:10:01.840Z,98608.22
2022-09-13T06:13:18.051Z,98606.63
2022-09-13T06:16:34.213Z,98605.44
2022-09-13T06:19:50.507Z,98608.15
2022-09-13T06:23:06.727Z,98604.28
2022-09-13T06:26:25.489Z,98602.11
2022-09-13T06:29:41.690Z,98617.13
2022-09-13T06:32:57.902Z,98613.52
2022-09-13T06:36:19.087Z,98618.25
2022-09-13T06:39:35.509Z,98627.39
2022-09-13T06:42:53.564Z,98624.94
2022-09-13T06:46:15.540Z,98628.36
2022-09-13T06:49:32.290Z,98625.78
2022-09-13T06:52:48.389Z,98629.42
2022-09-13T06:56:13.853Z,98639.20
2022-09-13T06:59:30.336Z,98636.63
2022-09-13T07:02:46.435Z,98640.73
2022-09-13T07:06:02.544Z,98645.18
2022-09-13T07:09:23.261Z,98648.41
2022-09-13T07:12:39.275Z,98653.22
2022-09-13T07:15:56.478Z,98650.28
2022-09-13T07:19:17.988Z,98652.01
2022-09-13T07:22:33.999Z,98652.03
2022-09-13T07:25:50.069Z,98648.22
2022-09-13T07:29:09.089Z,98648.52
2022-09-13T07:32:25.892Z,98650.77
2022-09-13T07:35:41.939Z,98646.05
2022-09-13T07:38:58.214Z,98646.09
2022-09-13T07:42:14.712Z,98647.84
2022-09-13T07:45:30.804Z,98638.91
2022-09-13T07:48:49.313Z,98649.13
2022-09-13T07:52:05.462Z,98651.44
2022-09-13T07:55:21.804Z,98648.75
2022-09-13T07:58:38.427Z,98650.17
2022-09-13T08:01:58.748Z,98641.10
2022-09-13T08:05:17.733Z,98656.13
2022-09-13T08:08:34.734Z,98645.63
2022-09-13T08:11:53.932Z,98644.34
2022-09-13T08:15:10.836Z,98643.20
2022-09-13T08:18:28.421Z,98642.68
2022-09-13T08:21:47.306Z,98636.55
2022-09-13T08:25:03.808Z,98621.04
2022-09-13T08:28:27.690Z,98623.38
2022-09-13T08:31:44.535Z,98620.85
2022-09-13T08:35:01.650Z,98622.42
2022-09-13T08:38:18.318Z,98618.42
2022-09-13T08:41:53.293Z,98621.76
2022-09-13T08:45:10.204Z,98615.36
2022-09-13T08:48:32.211Z,98616.88
2022-09-13T08:51:53.038Z,98613.56
2022-09-13T08:55:16.217Z,98612.64
2022-09-13T08:58:52.894Z,98612.64
2022-09-13T09:02:25.635Z,98613.42
2022-09-13T09:05:49.955Z,98612.38
2022-09-13T09:09:11.746Z,98610.86
2022-09-13T09:12:36.304Z,98610.56
2022-09-13T09:15:56.959Z,98613.39
2022-09-13T09:19:22.632Z,98603.53
2022-09-13T09:23:07.620Z,98598.63
2022-09-13T09:26:29.936Z,98597.17
2022-09-13T09:29:47.835Z,98585.73
2022-09-13T09:33:18.060Z,98590.02
2022-09-13T09:36:44.383Z,98580.77
2022-09-13T09:40:11.598Z,98576.30
2022-09-13T09:43:34.221Z,98573.88
2022-09-13T09:46:53.954Z,98566.95
2022-09-13T09:50:17.230Z,98573.67
2022-09-13T09:53:37.990Z,98569.61
2022-09-13T09:57:02.846Z,98563.91
2022-09-13T10:00:26.774Z,98559.36
2022-09-13T10:03:47.379Z,98554.23
2022-09-13T10:07:27.909Z,98554.01
2022-09-13T10:10:49.992Z,98546.77
2022-09-13T10:14:11.777Z,98544.09
2022-09-13T10:17:34.736Z,98545.16
2022-09-13T10:20:56.768Z,98536.13
2022-09-13T10:24:29.373Z,98531.16
2022-09-13T10:27:49.430Z,98523.45
2022-09-13T10:31:11.951Z,98521.90
2022-09-13T10:34:31.744Z,98524.81
2022-09-13T10:37:50.778Z,98518.41
2022-09-13T10:41:09.303Z,98520.75
2022-09-13T10:44:39.896Z,98520.14
2022-09-13T10:47:59.993Z,98513.83
2022-09-13T10:51:24.935Z,98518.08
2022-09-13T10:54:41.330Z,98505.17
2022-09-13T10:57:59.319Z,98504.47
2022-09-13T11:01:41.042Z,98497.52
2022-09-13T11:05:21.512Z,98494.97
2022-09-13T11:08:50.190Z,98502.00
2022-09-13T11:12:11.725Z,98498.20
2022-09-13T11:15:41.889Z,98495.89
2022-09-13T11:19:20.814Z,98490.08
2022-09-13T11:22:41.481Z,98491.30
2022-09-13T11:26:10.203Z,98482.25
2022-09-13T11:29:41.843Z,98479.51
2022-09-13T11:33:26.828Z,98484.42
2022-09-13T11:37:09.008Z,98478.38
2022-09-13T11:40:52.624Z,98463.94
2022-09-13T11:44:30.572Z,98456.88
2022-09-13T11:47:57.499Z,98455.09
2022-09-13T11:51:20.598Z,98450.20
2022-09-13T11:54:55.217Z,98446.89
2022-09-13T11:58:15.887Z,98439.08
2022-09-13T12:01:37.534Z,98437.75
2022-09-13T12:05:21.009Z,98433.77
2022-09-13T12:08:24.163Z,98428.99
2022-09-13T12:11:45.194Z,98415.45
2022-09-13T12:15:05.930Z,98412.00
2022-09-13T12:18:26.525Z,98407.98
2022-09-13T12:21:46.795Z,98397.77
2022-09-13T12:25:08.721Z,98394.77
2022-09-13T12:28:30.509Z,98386.95
2022-09-13T12:31:46.643Z,98373.95
2022-09-13T12:35:07.969Z,98369.89
2022-09-13T12:38:57.762Z,98366.70
2022-09-13T12:42:43.077Z,98350.23
2022-09-13T12:46:36.635Z,98359.23
2022-09-13T12:54:10.892Z,98344.43
2022-09-13T12:57:42.077Z,98344.91
2022-09-13T13:01:09.130Z,98342.52
2022-09-13T13:04:29.470Z,98341.43
2022-09-13T13:07:48.002Z,98350.03
2022-09-13T13:11:14.680Z,98344.91
2022-09-13T13:14:54.212Z,98329.83
2022-09-13T13:18:28.420Z,98335.20
2022-09-13T13:21:47.852Z,98335.16
2022-09-13T13:25:05.652Z,98322.20
2022-09-13T13:29:20.944Z,98321.66
2022-09-13T13:32:39.167Z,98315.19
2022-09-13T13:35:58.468Z,98300.14
2022-09-13T13:39:17.700Z,98309.58
2022-09-13T13:42:40.397Z,98316.81
2022-09-13T13:46:37.127Z,98318.27
2022-09-13T13:49:58.155Z,98317.73
2022-09-13T13:53:34.556Z,98301.59
2022-09-13T13:56:57.322Z,98300.22
2022-09-13T14:00:21.729Z,98287.03
2022-09-13T14:04:07.895Z,98279.15
2022-09-13T14:07:58.620Z,98275.09
2022-09-13T14:11:26.247Z,98277.70
2022-09-13T14:15:02.776Z,98265.88
2022-09-13T14:18:58.457Z,98267.02
2022-09-13T14:22:27.501Z,98262.25
2022-09-13T14:25:44.364Z,98263.39
2022-09-13T14:29:00.500Z,98265.84
2022-09-13T14:32:23.738Z,98264.78
2022-09-13T14:35:44.424Z,98247.24
2022-09-13T14:39:04.695Z,98239.39
2022-09-13T14:42:26.992Z,98239.36
2022-09-13T14:45:46.169Z,98233.67
2022-09-13T14:49:06.496Z,98243.00
2022-09-13T14:52:29.750Z,98241.10
2022-09-13T14:55:49.679Z,98246.18
2022-09-13T14:59:09.898Z,98235.98
2022-09-13T15:02:30.909Z,98228.18
2022-09-13T15:05:47.765Z,98239.44
2022-09-13T15:09:09.447Z,98234.58
2022-09-13T15:12:33.865Z,98234.58
2022-09-13T15:16:03.551Z,98234.58
2022-09-13T15:19:47.400Z,98236.13
2022-09-13T15:23:04.016Z,98237.67
2022-09-13T15:26:36.140Z,98231.63
2022-09-13T15:30:05.547Z,98226.47
2022-09-13T15:33:36.182Z,98228.84
2022-09-13T15:36:54.141Z,98223.95
2022-09-13T15:40:26.807Z,98223.59
2022-09-13T15:43:42.920Z,98218.99
2022-09-13T15:47:03.114Z,98216.22
2022-09-13T15:50:32.101Z,98218.06
2022-09-13T15:53:50.453Z,98223.32
2022-09-13T15:57:08.204Z,98224.12
2022-09-13T16:00:31.179Z,98222.80
2022-09-13T16:03:47.427Z,98224.38
2022-09-13T16:07:03.509Z,98221.95
2022-09-13T16:10:28.208Z,98219.27
2022-09-13T16:13:44.479Z,98214.11
2022-09-13T16:17:00.625Z,98206.48
2022-09-13T16:20:21.778Z,98207.70
2022-09-13T16:23:37.773Z,98206.02
2022-09-13T16:26:54.177Z,98214.27
2022-09-13T16:30:10.886Z,98215.25
2022-09-13T16:33:27.383Z,98214.61
2022-09-13T16:36:43.706Z,98213.55
2022-09-13T16:40:03.323Z,98214.93
2022-09-13T16:43:19.598Z,98220.05
2022-09-13T16:46:35.943Z,98220.63
2022-09-13T16:49:53.578Z,98220.37
2022-09-13T16:53:10.029Z,98217.45
2022-09-13T16:56:32.844Z,98220.14
2022-09-13T16:59:49.332Z,98217.69
2022-09-13T17:03:06.971Z,98220.63
2022-09-13T17:06:26.048Z,98214.13
2022-09-13T17:09:41.836Z,98216.97
2022-09-13T17:12:58.894Z,98211.31
2022-09-13T17:16:27.552Z,98210.73
2022-09-13T17:19:45.325Z,98197.80
2022-09-13T17:23:02.886Z,98210.41
2022-09-13T17:26:20.842Z,98205.05
2022-09-13T17:29:37.897Z,98212.52
2022-09-13T17:32:55.431Z,98203.92
2022-09-13T17:36:17.408Z,98200.92
2022-09-13T17:39:34.898Z,98205.45
2022-09-13T17:42:52.991Z,98204.91
2022-09-13T17:46:14.816Z,98200.52
2022-09-13T17:49:32.716Z,98205.82
2022-09-13T17:52:49.994Z,98197.44
2022-09-13T17:56:07.754Z,98194.69
2022-09-13T17:59:30.787Z,98190.84
2022-09-13T18:02:52.980Z,98190.84
2022-09-13T18:06:18.882Z,98188.92
2022-09-13T18:09:36.706Z,98189.28
2022-09-13T18:12:53.937Z,98187.18
2022-09-13T18:16:18.557Z,98180.98
2022-09-13T18:19:45.766Z,98184.50
2022-09-13T18:22:53.944Z,98181.56
2022-09-13T18:26:15.008Z,98177.36
2022-09-13T18:29:36.272Z,98178.41
2022-09-13T18:32:54.066Z,98180.05
2022-09-13T18:36:16.063Z,98179.56
2022-09-13T18:39:35.567Z,98178.27
2022-09-13T18:42:53.757Z,98180.37
2022-09-13T18:46:13.366Z,98185.48
2022-09-13T18:49:32.218Z,98177.18
2022-09-13T18:52:53.183Z,98180.37
2022-09-13T18:56:19.723Z,98173.95
2022-09-13T18:59:37.939Z,98162.39
2022-09-13T19:03:11.819Z,98161.02
2022-09-13T19:06:29.000Z,98163.37
2022-09-13T19:09:47.872Z,98161.96
2022-09-13T19:13:08.989Z,98159.45
2022-09-13T19:16:29.385Z,98152.96
2022-09-13T19:19:49.773Z,98143.28
2022-09-13T19:23:08.211Z,98142.96
2022-09-13T19:26:34.780Z,98144.27
2022-09-13T19:30:04.364Z,98145.31
2022-09-13T19:33:27.863Z,98138.32
2022-09-13T19:36:47.784Z,98118.42
2022-09-13T19:40:08.772Z,98124.59
2022-09-13T19:43:27.968Z,98122.16
2022-09-13T19:46:47.960Z,98113.06
2022-09-13T19:50:06.189Z,98108.75
2022-09-13T19:53:40.811Z,98117.84
2022-09-13T19:56:47.950Z,98119.22
2022-09-13T20:00:05.182Z,98116.33
2022-09-13T20:03:24.007Z,98113.86
2022-09-13T20:06:46.389Z,98114.11
2022-09-13T20:10:05.426Z,98109.25
2022-09-13T20:13:25.292Z,98101.21
2022-09-13T20:16:47.006Z,98106.00
2022-09-13T20:20:04.317Z,98106.80
2022-09-13T20:23:25.435Z,98102.52
2022-09-13T20:26:44.590Z,98103.06
2022-09-13T20:30:01.584Z,98102.52
2022-09-13T20:33:18.942Z,98114.04
2022-09-13T20:36:40.183Z,98110.30
2022-09-13T20:39:57.485Z,98111.94
2022-09-13T20:43:14.074Z,98096.90
2022-09-13T20:46:32.465Z,98098.75
2022-09-13T20:49:49.410Z,98099.58
2022-09-13T20:53:06.447Z,98103.78
2022-09-13T20:56:25.659Z,98099.25
2022-09-13T20:59:41.752Z,98101.36
2022-09-13T21:03:00.901Z,98110.70
2022-09-13T21:06:15.577Z,98103.16
2022-09-13T21:09:32.595Z,98097.80
2022-09-13T21:12:49.887Z,98099.90
2022-09-13T21:16:12.148Z,98106.31
2022-09-13T21:19:28.225Z,98102.50
2022-09-13T21:22:47.825Z,98102.50
2022-09-13T21:26:04.200Z,98103.80
2022-09-13T21:29:20.933Z,98097.86
2022-09-13T21:32:37.798Z,98097.61
2022-09-13T21:35:54.924Z,98096.02
2022-09-13T21:39:12.494Z,98095.19
2022-09-13T21:42:28.888Z,98088.11
2022-09-13T21:45:46.635Z,98091.05
2022-09-13T21:49:06.382Z,98083.47
2022-09-13T21:52:22.370Z,98084.22
2022-09-13T21:55:41.983Z,98089.25
2022-09-13T21:59:01.142Z,98084.69
2022-09-13T22:02:15.566Z,98078.28
2022-09-13T22:05:30.177Z,98076.52
2022-09-13T22:08:45.522Z,98084.55
2022-09-13T22:12:01.244Z,98073.33
2022-09-13T22:15:17.816Z,98074.16
2022-09-13T22:18:32.989Z,98063.66
2022-09-13T22:21:56.394Z,98056.20
2022-09-13T22:25:10.452Z,98053.52
2022-09-13T22:28:24.110Z,98054.11
2022-09-13T22:31:39.637Z,98057.00
2022-09-13T22:34:53.113Z,98060.27
2022-09-13T22:38:07.046Z,98062.87
2022-09-13T22:41:22.245Z,98051.09
2022-09-13T22:44:38.231Z,98053.27
2022-09-13T22:47:51.903Z,98053.27
2022-09-13T22:51:05.524Z,98044.19
2022-09-13T22:54:20.040Z,98052.80
2022-09-13T22:57:33.535Z,98046.14
2022-09-13T23:00:47.495Z,98045.89
2022-09-13T23:04:01.817Z,98043.54
2022-09-13T23:07:23.139Z,98044.11
2022-09-13T23:10:37.098Z,98042.23
2022-09-13T23:13:52.013Z,98041.44
2022-09-13T23:17:05.807Z,98047.59
2022-09-13T23:20:20.719Z,98039.23
2022-09-13T23:23:34.590Z,98038.65
2022-09-13T23:26:51.590Z,98041.83
2022-09-13T23:30:05.153Z,98038.50
2022-09-13T23:33:18.874Z,98037.30
2022-09-13T23:36:35.175Z,98039.31
2022-09-13T23:39:48.763Z,98034.76
2022-09-13T23:43:02.208Z,98037.79
2022-09-13T23:46:15.859Z,98038.17
2022-09-13T23:49:29.495Z,98038.33
2022-09-13T23:52:42.910Z,98026.95
2022-09-13T23:55:56.356Z,98028.86
2022-09-13T23:59:11.413Z,98025.66
